N783TS EDXW-EKRN
Flight info
| Callsign | N783TS |
|---|---|
| Flight time | N/A |
| Altitude | 250 |
| Route | OLDIP1B/32 OLDIP DCT ALASA M611 LANGO DCT CDA DCT BALOX L983 ROE |
| Aircraft | SF50/L-BDGRSWY/LB2U2 |
Departure
| Time | 2026-04-26 12:58 |
|---|---|
| Airport | Westerland Sylt Airport (EDXW) |
Arrival
| Time | N/A |
|---|---|
| Airport | Bornholm Airport (EKRN) |
| Time | Latitude | Longitude | Altitude | Speed | Heading |
|---|---|---|---|---|---|
| 2026-04-26 12:30 | 54.91286 | 8.32486 | 21 ft | 0 kts | 250° |
| 2026-04-26 12:51 | 54.91276 | 8.32491 | 21 ft | 5 kts | 136° |
| 2026-04-26 12:51 | 54.91242 | 8.32532 | 21 ft | 6 kts | 151° |
| 2026-04-26 12:52 | 54.91201 | 8.32588 | 22 ft | 10 kts | 146° |
| 2026-04-26 12:52 | 54.91127 | 8.32667 | 22 ft | 16 kts | 147° |
| 2026-04-26 12:52 | 54.91080 | 8.32780 | 22 ft | 5 kts | 112° |
| 2026-04-26 12:52 | 54.91077 | 8.32794 | 22 ft | 5 kts | 107° |
| 2026-04-26 12:53 | 54.91050 | 8.32913 | 25 ft | 17 kts | 118° |
| 2026-04-26 12:53 | 54.90969 | 8.33081 | 28 ft | 16 kts | 141° |
| 2026-04-26 12:53 | 54.90879 | 8.33174 | 29 ft | 16 kts | 160° |
| 2026-04-26 12:53 | 54.90774 | 8.33218 | 29 ft | 15 kts | 174° |
| 2026-04-26 12:54 | 54.90658 | 8.33233 | 29 ft | 18 kts | 176° |
| 2026-04-26 12:54 | 54.90524 | 8.33258 | 28 ft | 21 kts | 167° |
| 2026-04-26 12:54 | 54.90399 | 8.33357 | 28 ft | 19 kts | 146° |
| 2026-04-26 12:54 | 54.90301 | 8.33541 | 27 ft | 22 kts | 121° |
| 2026-04-26 12:55 | 54.90257 | 8.33771 | 27 ft | 19 kts | 98° |
| 2026-04-26 12:55 | 54.90238 | 8.34006 | 27 ft | 20 kts | 99° |
| 2026-04-26 12:55 | 54.90241 | 8.34211 | 27 ft | 10 kts | 81° |
| 2026-04-26 12:55 | 54.90256 | 8.34348 | 28 ft | 15 kts | 78° |
| 2026-04-26 12:56 | 54.90283 | 8.34629 | 29 ft | 32 kts | 75° |
| 2026-04-26 12:56 | 54.90320 | 8.34961 | 29 ft | 21 kts | 82° |
| 2026-04-26 12:56 | 54.90362 | 8.35125 | 30 ft | 12 kts | 55° |
| 2026-04-26 12:56 | 54.90380 | 8.35162 | 31 ft | 0 kts | 26° |
| 2026-04-26 12:57 | 54.90401 | 8.35170 | 31 ft | 5 kts | 356° |
| 2026-04-26 12:57 | 54.90434 | 8.35148 | 31 ft | 5 kts | 318° |
| 2026-04-26 12:57 | 54.90455 | 8.35120 | 31 ft | 13 kts | 324° |
| 2026-04-26 12:58 | 54.91053 | 8.34380 | 31 ft | 87 kts | 325° |
| 2026-04-26 12:58 | 54.91566 | 8.33763 | 243 ft | 86 kts | 326° |
| 2026-04-26 12:58 | 54.92054 | 8.33117 | 470 ft | 100 kts | 320° |
| 2026-04-26 12:58 | 54.92703 | 8.32162 | 830 ft | 141 kts | 320° |
| 2026-04-26 12:59 | 54.93552 | 8.31049 | 1101 ft | 152 kts | 324° |
| 2026-04-26 12:59 | 54.94394 | 8.30007 | 1292 ft | 139 kts | 323° |
| 2026-04-26 12:59 | 54.95098 | 8.29021 | 1499 ft | 130 kts | 317° |
| 2026-04-26 12:59 | 54.95754 | 8.27922 | 1773 ft | 140 kts | 317° |
| 2026-04-26 13:00 | 54.96496 | 8.26705 | 2505 ft | 154 kts | 316° |
| 2026-04-26 13:00 | 54.97261 | 8.25233 | 3113 ft | 175 kts | 309° |
| 2026-04-26 13:00 | 54.97844 | 8.24109 | 3201 ft | 199 kts | 312° |